sensor_id;sensor_type;location;lat;lon;timestamp;P1;durP1;ratioP1;P2;durP2;ratioP2
6485;SDS011;3276;48.490;9.222;2023-05-07T00:01:47;454.87;;;429.93;;
6485;SDS011;3276;48.490;9.222;2023-05-07T00:04:13;424.90;;;401.97;;
6485;SDS011;3276;48.490;9.222;2023-05-07T00:06:39;437.37;;;412.43;;
6485;SDS011;3276;48.490;9.222;2023-05-07T00:09:04;449.10;;;425.30;;
6485;SDS011;3276;48.490;9.222;2023-05-07T00:11:30;268.97;;;251.83;;
6485;SDS011;3276;48.490;9.222;2023-05-07T00:13:56;399.73;;;377.07;;
6485;SDS011;3276;48.490;9.222;2023-05-07T00:16:21;375.57;;;355.13;;
6485;SDS011;3276;48.490;9.222;2023-05-07T00:18:47;270.60;;;253.93;;
6485;SDS011;3276;48.490;9.222;2023-05-07T00:21:13;159.17;;;147.10;;
6485;SDS011;3276;48.490;9.222;2023-05-07T00:23:39;384.20;;;363.70;;
6485;SDS011;3276;48.490;9.222;2023-05-07T00:26:05;258.40;;;242.20;;
6485;SDS011;3276;48.490;9.222;2023-05-07T00:28:30;221.53;;;206.23;;
6485;SDS011;3276;48.490;9.222;2023-05-07T00:30:56;385.23;;;365.63;;
6485;SDS011;3276;48.490;9.222;2023-05-07T00:33:21;178.80;;;165.50;;
6485;SDS011;3276;48.490;9.222;2023-05-07T00:35:50;302.77;;;284.90;;
6485;SDS011;3276;48.490;9.222;2023-05-07T00:38:15;290.57;;;271.77;;
6485;SDS011;3276;48.490;9.222;2023-05-07T00:40:41;203.97;;;189.83;;
6485;SDS011;3276;48.490;9.222;2023-05-07T00:43:06;319.33;;;301.30;;
6485;SDS011;3276;48.490;9.222;2023-05-07T00:45:32;325.23;;;305.23;;
6485;SDS011;3276;48.490;9.222;2023-05-07T00:47:59;241.50;;;226.27;;
6485;SDS011;3276;48.490;9.222;2023-05-07T00:50:29;363.73;;;344.90;;
6485;SDS011;3276;48.490;9.222;2023-05-07T00:52:55;363.80;;;344.57;;
6485;SDS011;3276;48.490;9.222;2023-05-07T00:55:21;166.97;;;154.07;;
6485;SDS011;3276;48.490;9.222;2023-05-07T00:57:48;209.77;;;195.43;;
6485;SDS011;3276;48.490;9.222;2023-05-07T01:00:15;142.30;;;130.20;;
6485;SDS011;3276;48.490;9.222;2023-05-07T01:02:41;320.30;;;302.63;;
6485;SDS011;3276;48.490;9.222;2023-05-07T01:05:13;340.10;;;321.13;;
6485;SDS011;3276;48.490;9.222;2023-05-07T01:07:40;249.80;;;234.07;;
6485;SDS011;3276;48.490;9.222;2023-05-07T01:10:07;332.67;;;314.70;;
6485;SDS011;3276;48.490;9.222;2023-05-07T01:12:34;331.77;;;314.47;;
6485;SDS011;3276;48.490;9.222;2023-05-07T01:15:03;315.87;;;298.37;;
6485;SDS011;3276;48.490;9.222;2023-05-07T01:17:32;276.13;;;259.47;;
6485;SDS011;3276;48.490;9.222;2023-05-07T01:20:02;170.43;;;157.67;;
6485;SDS011;3276;48.490;9.222;2023-05-07T01:22:31;387.93;;;363.37;;
6485;SDS011;3276;48.490;9.222;2023-05-07T01:25:01;367.87;;;345.37;;
6485;SDS011;3276;48.490;9.222;2023-05-07T01:27:28;295.13;;;276.80;;
6485;SDS011;3276;48.490;9.222;2023-05-07T01:29:54;316.33;;;298.47;;
6485;SDS011;3276;48.490;9.222;2023-05-07T01:32:21;155.40;;;142.83;;
6485;SDS011;3276;48.490;9.222;2023-05-07T01:34:56;282.13;;;264.30;;
6485;SDS011;3276;48.490;9.222;2023-05-07T01:37:23;305.17;;;288.27;;
6485;SDS011;3276;48.490;9.222;2023-05-07T01:39:50;357.57;;;336.47;;
6485;SDS011;3276;48.490;9.222;2023-05-07T01:42:20;347.70;;;326.47;;
6485;SDS011;3276;48.490;9.222;2023-05-07T01:44:47;287.23;;;270.40;;
6485;SDS011;3276;48.490;9.222;2023-05-07T01:47:13;341.00;;;321.10;;
6485;SDS011;3276;48.490;9.222;2023-05-07T01:49:39;244.73;;;228.93;;
6485;SDS011;3276;48.490;9.222;2023-05-07T01:52:05;202.23;;;189.07;;
6485;SDS011;3276;48.490;9.222;2023-05-07T01:54:31;278.17;;;262.13;;
6485;SDS011;3276;48.490;9.222;2023-05-07T01:56:57;227.20;;;212.47;;
6485;SDS011;3276;48.490;9.222;2023-05-07T01:59:23;286.23;;;269.63;;
6485;SDS011;3276;48.490;9.222;2023-05-07T02:01:48;272.43;;;256.30;;
6485;SDS011;3276;48.490;9.222;2023-05-07T02:04:14;319.53;;;301.33;;
6485;SDS011;3276;48.490;9.222;2023-05-07T02:06:39;364.43;;;342.57;;
6485;SDS011;3276;48.490;9.222;2023-05-07T02:09:05;317.07;;;299.43;;
6485;SDS011;3276;48.490;9.222;2023-05-07T02:11:31;294.03;;;276.67;;
6485;SDS011;3276;48.490;9.222;2023-05-07T02:13:56;300.90;;;283.73;;
6485;SDS011;3276;48.490;9.222;2023-05-07T02:16:22;416.20;;;393.17;;
6485;SDS011;3276;48.490;9.222;2023-05-07T02:18:48;274.37;;;258.10;;
6485;SDS011;3276;48.490;9.222;2023-05-07T02:21:14;413.47;;;389.83;;
6485;SDS011;3276;48.490;9.222;2023-05-07T02:23:40;272.63;;;256.93;;
6485;SDS011;3276;48.490;9.222;2023-05-07T02:26:05;374.53;;;353.33;;
6485;SDS011;3276;48.490;9.222;2023-05-07T02:28:31;277.80;;;261.30;;
6485;SDS011;3276;48.490;9.222;2023-05-07T02:30:57;417.00;;;393.80;;
6485;SDS011;3276;48.490;9.222;2023-05-07T02:33:24;297.03;;;279.37;;
6485;SDS011;3276;48.490;9.222;2023-05-07T02:35:50;331.13;;;312.13;;
6485;SDS011;3276;48.490;9.222;2023-05-07T02:38:16;344.00;;;324.17;;
6485;SDS011;3276;48.490;9.222;2023-05-07T02:40:42;335.53;;;316.43;;
6485;SDS011;3276;48.490;9.222;2023-05-07T02:43:08;325.43;;;308.17;;
6485;SDS011;3276;48.490;9.222;2023-05-07T02:45:34;311.80;;;293.73;;
6485;SDS011;3276;48.490;9.222;2023-05-07T02:48:01;307.80;;;289.73;;
6485;SDS011;3276;48.490;9.222;2023-05-07T02:50:26;290.80;;;273.43;;
6485;SDS011;3276;48.490;9.222;2023-05-07T02:52:52;301.90;;;284.10;;
6485;SDS011;3276;48.490;9.222;2023-05-07T02:55:17;377.90;;;356.73;;
6485;SDS011;3276;48.490;9.222;2023-05-07T02:57:43;338.17;;;318.73;;
6485;SDS011;3276;48.490;9.222;2023-05-07T03:00:13;304.27;;;287.03;;
6485;SDS011;3276;48.490;9.222;2023-05-07T03:02:40;346.37;;;325.23;;
6485;SDS011;3276;48.490;9.222;2023-05-07T03:05:05;327.23;;;308.90;;
6485;SDS011;3276;48.490;9.222;2023-05-07T03:07:31;262.47;;;245.77;;
6485;SDS011;3276;48.490;9.222;2023-05-07T03:09:57;275.57;;;258.33;;
6485;SDS011;3276;48.490;9.222;2023-05-07T03:12:22;331.73;;;311.87;;
6485;SDS011;3276;48.490;9.222;2023-05-07T03:14:48;274.03;;;258.03;;
6485;SDS011;3276;48.490;9.222;2023-05-07T03:17:13;348.17;;;327.97;;
6485;SDS011;3276;48.490;9.222;2023-05-07T03:19:39;387.67;;;364.07;;
6485;SDS011;3276;48.490;9.222;2023-05-07T03:22:04;334.47;;;315.37;;
6485;SDS011;3276;48.490;9.222;2023-05-07T03:24:30;274.33;;;257.90;;
6485;SDS011;3276;48.490;9.222;2023-05-07T03:26:55;300.73;;;282.73;;
6485;SDS011;3276;48.490;9.222;2023-05-07T03:29:22;365.50;;;344.33;;
6485;SDS011;3276;48.490;9.222;2023-05-07T03:31:48;367.80;;;346.67;;
6485;SDS011;3276;48.490;9.222;2023-05-07T03:34:13;355.37;;;334.90;;
6485;SDS011;3276;48.490;9.222;2023-05-07T03:36:39;273.23;;;256.60;;
6485;SDS011;3276;48.490;9.222;2023-05-07T03:39:05;319.80;;;300.63;;
6485;SDS011;3276;48.490;9.222;2023-05-07T03:41:32;281.77;;;264.90;;
6485;SDS011;3276;48.490;9.222;2023-05-07T03:43:57;343.80;;;325.37;;
6485;SDS011;3276;48.490;9.222;2023-05-07T03:46:23;387.00;;;365.53;;
6485;SDS011;3276;48.490;9.222;2023-05-07T03:48:51;314.27;;;296.40;;
6485;SDS011;3276;48.490;9.222;2023-05-07T03:51:16;344.53;;;325.43;;
6485;SDS011;3276;48.490;9.222;2023-05-07T03:53:42;370.03;;;350.43;;
6485;SDS011;3276;48.490;9.222;2023-05-07T03:56:07;271.83;;;255.67;;
6485;SDS011;3276;48.490;9.222;2023-05-07T03:58:33;338.30;;;318.90;;
6485;SDS011;3276;48.490;9.222;2023-05-07T04:00:58;275.40;;;258.73;;
6485;SDS011;3276;48.490;9.222;2023-05-07T04:03:24;379.93;;;358.77;;
6485;SDS011;3276;48.490;9.222;2023-05-07T04:05:50;334.83;;;315.17;;
6485;SDS011;3276;48.490;9.222;2023-05-07T04:08:15;351.43;;;332.13;;
6485;SDS011;3276;48.490;9.222;2023-05-07T04:10:41;368.73;;;347.60;;
6485;SDS011;3276;48.490;9.222;2023-05-07T04:13:06;327.03;;;308.80;;
6485;SDS011;3276;48.490;9.222;2023-05-07T04:15:32;185.30;;;172.30;;
6485;SDS011;3276;48.490;9.222;2023-05-07T04:17:57;321.73;;;304.10;;
6485;SDS011;3276;48.490;9.222;2023-05-07T04:20:23;310.93;;;292.70;;
6485;SDS011;3276;48.490;9.222;2023-05-07T04:22:48;323.70;;;305.10;;
6485;SDS011;3276;48.490;9.222;2023-05-07T04:25:17;240.23;;;224.70;;
6485;SDS011;3276;48.490;9.222;2023-05-07T04:27:42;377.97;;;357.57;;
6485;SDS011;3276;48.490;9.222;2023-05-07T04:30:08;333.30;;;315.07;;
6485;SDS011;3276;48.490;9.222;2023-05-07T04:32:33;346.17;;;326.20;;
6485;SDS011;3276;48.490;9.222;2023-05-07T04:34:59;321.73;;;303.83;;
6485;SDS011;3276;48.490;9.222;2023-05-07T04:37:25;318.83;;;300.20;;
6485;SDS011;3276;48.490;9.222;2023-05-07T04:39:51;284.10;;;267.00;;
6485;SDS011;3276;48.490;9.222;2023-05-07T04:42:17;271.70;;;255.37;;
6485;SDS011;3276;48.490;9.222;2023-05-07T04:44:43;298.87;;;280.67;;
6485;SDS011;3276;48.490;9.222;2023-05-07T04:47:09;255.43;;;239.10;;
6485;SDS011;3276;48.490;9.222;2023-05-07T04:49:36;241.20;;;225.97;;
6485;SDS011;3276;48.490;9.222;2023-05-07T04:52:02;298.07;;;280.33;;
6485;SDS011;3276;48.490;9.222;2023-05-07T04:54:28;298.43;;;280.50;;
6485;SDS011;3276;48.490;9.222;2023-05-07T04:56:53;304.13;;;285.70;;
6485;SDS011;3276;48.490;9.222;2023-05-07T04:59:19;295.90;;;278.63;;
6485;SDS011;3276;48.490;9.222;2023-05-07T05:01:45;279.27;;;262.73;;
6485;SDS011;3276;48.490;9.222;2023-05-07T05:04:10;279.00;;;261.67;;
6485;SDS011;3276;48.490;9.222;2023-05-07T05:06:36;338.00;;;318.33;;
6485;SDS011;3276;48.490;9.222;2023-05-07T05:09:01;257.73;;;241.87;;
6485;SDS011;3276;48.490;9.222;2023-05-07T05:11:27;270.13;;;253.33;;
6485;SDS011;3276;48.490;9.222;2023-05-07T05:13:52;213.77;;;199.20;;
6485;SDS011;3276;48.490;9.222;2023-05-07T05:16:18;263.07;;;247.10;;
6485;SDS011;3276;48.490;9.222;2023-05-07T05:18:44;225.07;;;210.03;;
6485;SDS011;3276;48.490;9.222;2023-05-07T05:21:09;273.70;;;257.70;;
6485;SDS011;3276;48.490;9.222;2023-05-07T05:23:35;374.40;;;352.33;;
6485;SDS011;3276;48.490;9.222;2023-05-07T05:26:00;414.03;;;389.67;;
6485;SDS011;3276;48.490;9.222;2023-05-07T05:28:26;344.90;;;324.00;;
6485;SDS011;3276;48.490;9.222;2023-05-07T05:30:52;362.57;;;342.13;;
6485;SDS011;3276;48.490;9.222;2023-05-07T05:33:18;379.80;;;356.13;;
6485;SDS011;3276;48.490;9.222;2023-05-07T05:35:44;453.33;;;426.97;;
6485;SDS011;3276;48.490;9.222;2023-05-07T05:38:10;509.23;;;476.53;;
6485;SDS011;3276;48.490;9.222;2023-05-07T05:40:35;642.40;;;596.97;;
6485;SDS011;3276;48.490;9.222;2023-05-07T05:43:01;652.70;;;610.47;;
6485;SDS011;3276;48.490;9.222;2023-05-07T05:45:26;665.87;;;621.33;;
6485;SDS011;3276;48.490;9.222;2023-05-07T05:47:51;741.13;;;689.13;;
6485;SDS011;3276;48.490;9.222;2023-05-07T05:50:17;685.37;;;640.30;;
6485;SDS011;3276;48.490;9.222;2023-05-07T05:52:43;714.40;;;664.33;;
6485;SDS011;3276;48.490;9.222;2023-05-07T05:55:08;783.13;;;728.07;;
6485;SDS011;3276;48.490;9.222;2023-05-07T05:57:34;831.90;;;774.00;;
6485;SDS011;3276;48.490;9.222;2023-05-07T06:00:00;748.03;;;695.93;;
6485;SDS011;3276;48.490;9.222;2023-05-07T06:02:27;793.47;;;734.93;;
6485;SDS011;3276;48.490;9.222;2023-05-07T06:04:52;853.97;;;790.57;;
6485;SDS011;3276;48.490;9.222;2023-05-07T06:07:18;829.60;;;772.03;;
6485;SDS011;3276;48.490;9.222;2023-05-07T06:09:44;765.80;;;709.27;;
6485;SDS011;3276;48.490;9.222;2023-05-07T06:12:09;818.90;;;762.10;;
6485;SDS011;3276;48.490;9.222;2023-05-07T06:14:35;807.00;;;749.50;;
6485;SDS011;3276;48.490;9.222;2023-05-07T06:17:00;854.33;;;783.53;;
6485;SDS011;3276;48.490;9.222;2023-05-07T06:19:26;833.80;;;773.97;;
6485;SDS011;3276;48.490;9.222;2023-05-07T06:21:53;767.40;;;711.90;;
6485;SDS011;3276;48.490;9.222;2023-05-07T06:24:18;933.03;;;853.43;;
6485;SDS011;3276;48.490;9.222;2023-05-07T06:26:44;786.00;;;726.60;;
6485;SDS011;3276;48.490;9.222;2023-05-07T06:29:09;900.73;;;834.23;;
6485;SDS011;3276;48.490;9.222;2023-05-07T06:31:35;901.37;;;831.93;;
6485;SDS011;3276;48.490;9.222;2023-05-07T06:34:01;962.90;;;884.17;;
6485;SDS011;3276;48.490;9.222;2023-05-07T06:36:27;904.67;;;832.13;;
6485;SDS011;3276;48.490;9.222;2023-05-07T06:38:53;920.93;;;849.37;;
6485;SDS011;3276;48.490;9.222;2023-05-07T06:41:18;890.27;;;817.40;;
6485;SDS011;3276;48.490;9.222;2023-05-07T06:43:45;898.87;;;830.40;;
6485;SDS011;3276;48.490;9.222;2023-05-07T06:46:11;901.33;;;830.57;;
6485;SDS011;3276;48.490;9.222;2023-05-07T06:48:36;905.67;;;837.00;;
6485;SDS011;3276;48.490;9.222;2023-05-07T06:51:01;877.77;;;811.57;;
6485;SDS011;3276;48.490;9.222;2023-05-07T06:53:27;885.00;;;818.67;;
6485;SDS011;3276;48.490;9.222;2023-05-07T06:55:54;817.77;;;758.27;;
6485;SDS011;3276;48.490;9.222;2023-05-07T06:58:20;881.10;;;809.80;;
6485;SDS011;3276;48.490;9.222;2023-05-07T07:00:45;887.00;;;822.93;;
6485;SDS011;3276;48.490;9.222;2023-05-07T07:03:11;826.97;;;768.13;;
6485;SDS011;3276;48.490;9.222;2023-05-07T07:05:36;860.77;;;794.17;;
6485;SDS011;3276;48.490;9.222;2023-05-07T07:08:02;759.80;;;704.93;;
6485;SDS011;3276;48.490;9.222;2023-05-07T07:10:27;887.20;;;822.17;;
6485;SDS011;3276;48.490;9.222;2023-05-07T07:12:53;852.20;;;789.30;;
6485;SDS011;3276;48.490;9.222;2023-05-07T07:15:19;849.40;;;788.20;;
6485;SDS011;3276;48.490;9.222;2023-05-07T07:17:45;842.97;;;783.90;;
6485;SDS011;3276;48.490;9.222;2023-05-07T07:20:11;903.70;;;829.03;;
6485;SDS011;3276;48.490;9.222;2023-05-07T07:22:37;867.67;;;802.93;;
6485;SDS011;3276;48.490;9.222;2023-05-07T07:25:02;851.77;;;789.40;;
6485;SDS011;3276;48.490;9.222;2023-05-07T07:27:28;912.07;;;838.90;;
6485;SDS011;3276;48.490;9.222;2023-05-07T07:29:54;925.90;;;851.07;;
6485;SDS011;3276;48.490;9.222;2023-05-07T07:32:19;967.50;;;886.63;;
6485;SDS011;3276;48.490;9.222;2023-05-07T07:34:45;935.70;;;861.70;;
6485;SDS011;3276;48.490;9.222;2023-05-07T07:37:10;968.87;;;890.63;;
6485;SDS011;3276;48.490;9.222;2023-05-07T07:39:36;987.37;;;895.47;;
6485;SDS011;3276;48.490;9.222;2023-05-07T07:42:02;988.67;;;902.00;;
6485;SDS011;3276;48.490;9.222;2023-05-07T07:44:28;901.13;;;828.90;;
6485;SDS011;3276;48.490;9.222;2023-05-07T07:46:53;842.80;;;776.50;;
6485;SDS011;3276;48.490;9.222;2023-05-07T07:49:19;915.97;;;845.80;;
6485;SDS011;3276;48.490;9.222;2023-05-07T07:51:45;898.67;;;827.93;;
6485;SDS011;3276;48.490;9.222;2023-05-07T07:54:10;909.73;;;830.87;;
6485;SDS011;3276;48.490;9.222;2023-05-07T07:56:36;927.00;;;851.70;;
6485;SDS011;3276;48.490;9.222;2023-05-07T07:59:01;954.63;;;873.73;;
6485;SDS011;3276;48.490;9.222;2023-05-07T08:01:29;882.50;;;817.73;;
6485;SDS011;3276;48.490;9.222;2023-05-07T08:03:55;793.57;;;737.50;;
6485;SDS011;3276;48.490;9.222;2023-05-07T08:06:20;871.00;;;809.33;;
6485;SDS011;3276;48.490;9.222;2023-05-07T08:08:46;819.33;;;762.27;;
6485;SDS011;3276;48.490;9.222;2023-05-07T08:11:11;868.67;;;803.33;;
6485;SDS011;3276;48.490;9.222;2023-05-07T08:13:37;788.57;;;733.10;;
6485;SDS011;3276;48.490;9.222;2023-05-07T08:16:03;759.73;;;707.60;;
6485;SDS011;3276;48.490;9.222;2023-05-07T08:18:29;710.93;;;668.17;;
6485;SDS011;3276;48.490;9.222;2023-05-07T08:20:55;810.63;;;756.87;;
6485;SDS011;3276;48.490;9.222;2023-05-07T08:23:21;760.53;;;710.43;;
6485;SDS011;3276;48.490;9.222;2023-05-07T08:25:47;785.57;;;733.00;;
6485;SDS011;3276;48.490;9.222;2023-05-07T08:28:13;753.50;;;699.47;;
6485;SDS011;3276;48.490;9.222;2023-05-07T08:30:38;822.63;;;766.23;;
6485;SDS011;3276;48.490;9.222;2023-05-07T08:33:04;778.57;;;725.50;;
6485;SDS011;3276;48.490;9.222;2023-05-07T08:35:29;855.57;;;792.03;;
6485;SDS011;3276;48.490;9.222;2023-05-07T08:37:55;669.13;;;628.23;;
6485;SDS011;3276;48.490;9.222;2023-05-07T08:40:22;940.07;;;865.70;;
6485;SDS011;3276;48.490;9.222;2023-05-07T08:42:52;807.67;;;753.97;;
6485;SDS011;3276;48.490;9.222;2023-05-07T08:45:18;776.67;;;724.87;;
6485;SDS011;3276;48.490;9.222;2023-05-07T08:47:46;801.17;;;746.47;;
6485;SDS011;3276;48.490;9.222;2023-05-07T08:50:16;831.57;;;771.27;;
6485;SDS011;3276;48.490;9.222;2023-05-07T08:52:42;662.00;;;621.00;;
6485;SDS011;3276;48.490;9.222;2023-05-07T08:55:08;732.70;;;681.23;;
6485;SDS011;3276;48.490;9.222;2023-05-07T08:57:35;768.40;;;712.53;;
6485;SDS011;3276;48.490;9.222;2023-05-07T09:00:02;780.53;;;724.53;;
6485;SDS011;3276;48.490;9.222;2023-05-07T09:02:29;797.90;;;740.73;;
6485;SDS011;3276;48.490;9.222;2023-05-07T09:04:54;817.03;;;758.23;;
6485;SDS011;3276;48.490;9.222;2023-05-07T09:07:20;747.63;;;694.63;;
6485;SDS011;3276;48.490;9.222;2023-05-07T09:09:47;778.67;;;725.53;;
6485;SDS011;3276;48.490;9.222;2023-05-07T09:12:13;801.57;;;744.53;;
6485;SDS011;3276;48.490;9.222;2023-05-07T09:14:38;675.27;;;629.63;;
6485;SDS011;3276;48.490;9.222;2023-05-07T09:17:04;717.90;;;668.43;;
6485;SDS011;3276;48.490;9.222;2023-05-07T09:19:30;846.33;;;784.57;;
6485;SDS011;3276;48.490;9.222;2023-05-07T09:22:02;823.97;;;761.20;;
6485;SDS011;3276;48.490;9.222;2023-05-07T09:24:29;740.63;;;687.73;;
6485;SDS011;3276;48.490;9.222;2023-05-07T09:26:59;839.17;;;778.50;;
6485;SDS011;3276;48.490;9.222;2023-05-07T09:29:26;807.73;;;747.83;;
6485;SDS011;3276;48.490;9.222;2023-05-07T09:31:54;812.63;;;755.80;;
6485;SDS011;3276;48.490;9.222;2023-05-07T09:34:20;920.07;;;846.10;;
6485;SDS011;3276;48.490;9.222;2023-05-07T09:36:46;906.30;;;836.53;;
6485;SDS011;3276;48.490;9.222;2023-05-07T09:39:12;753.10;;;700.37;;
6485;SDS011;3276;48.490;9.222;2023-05-07T09:41:44;923.17;;;846.57;;
6485;SDS011;3276;48.490;9.222;2023-05-07T09:44:14;792.83;;;739.63;;
6485;SDS011;3276;48.490;9.222;2023-05-07T09:46:41;945.90;;;871.43;;
6485;SDS011;3276;48.490;9.222;2023-05-07T09:49:10;776.53;;;722.80;;
6485;SDS011;3276;48.490;9.222;2023-05-07T09:51:45;839.33;;;776.87;;
6485;SDS011;3276;48.490;9.222;2023-05-07T09:54:14;874.17;;;804.37;;
6485;SDS011;3276;48.490;9.222;2023-05-07T09:56:40;1039.87;;;948.63;;
6485;SDS011;3276;48.490;9.222;2023-05-07T09:59:07;877.00;;;808.87;;
6485;SDS011;3276;48.490;9.222;2023-05-07T10:01:36;915.70;;;846.90;;
6485;SDS011;3276;48.490;9.222;2023-05-07T10:04:02;912.73;;;835.87;;
6485;SDS011;3276;48.490;9.222;2023-05-07T10:06:29;922.73;;;854.83;;
6485;SDS011;3276;48.490;9.222;2023-05-07T10:08:55;884.40;;;815.13;;
6485;SDS011;3276;48.490;9.222;2023-05-07T10:11:22;839.33;;;772.87;;
6485;SDS011;3276;48.490;9.222;2023-05-07T10:13:48;931.37;;;853.67;;
6485;SDS011;3276;48.490;9.222;2023-05-07T10:16:14;882.13;;;815.93;;
6485;SDS011;3276;48.490;9.222;2023-05-07T10:18:40;961.90;;;887.07;;
6485;SDS011;3276;48.490;9.222;2023-05-07T10:21:22;826.37;;;766.77;;
6485;SDS011;3276;48.490;9.222;2023-05-07T10:23:49;1016.43;;;931.37;;
6485;SDS011;3276;48.490;9.222;2023-05-07T10:26:18;936.97;;;861.97;;
6485;SDS011;3276;48.490;9.222;2023-05-07T10:28:47;978.77;;;898.83;;
6485;SDS011;3276;48.490;9.222;2023-05-07T10:34:11;989.57;;;909.67;;
6485;SDS011;3276;48.490;9.222;2023-05-07T10:36:39;985.60;;;906.73;;
6485;SDS011;3276;48.490;9.222;2023-05-07T10:39:05;858.23;;;794.70;;
6485;SDS011;3276;48.490;9.222;2023-05-07T10:41:31;904.97;;;834.10;;
6485;SDS011;3276;48.490;9.222;2023-05-07T10:43:57;897.07;;;826.53;;
6485;SDS011;3276;48.490;9.222;2023-05-07T10:46:26;867.67;;;806.17;;
6485;SDS011;3276;48.490;9.222;2023-05-07T10:51:31;808.87;;;751.80;;
6485;SDS011;3276;48.490;9.222;2023-05-07T10:54:31;805.93;;;753.50;;
6485;SDS011;3276;48.490;9.222;2023-05-07T10:56:50;841.20;;;781.00;;
6485;SDS011;3276;48.490;9.222;2023-05-07T11:02:04;862.97;;;800.17;;
6485;SDS011;3276;48.490;9.222;2023-05-07T11:04:34;804.47;;;752.03;;
6485;SDS011;3276;48.490;9.222;2023-05-07T11:15:04;849.03;;;788.93;;
6485;SDS011;3276;48.490;9.222;2023-05-07T11:17:32;892.07;;;826.93;;
6485;SDS011;3276;48.490;9.222;2023-05-07T11:19:59;946.43;;;869.73;;
6485;SDS011;3276;48.490;9.222;2023-05-07T11:25:05;748.80;;;700.43;;
6485;SDS011;3276;48.490;9.222;2023-05-07T11:27:31;809.30;;;753.30;;
6485;SDS011;3276;48.490;9.222;2023-05-07T11:29:57;912.03;;;842.90;;
6485;SDS011;3276;48.490;9.222;2023-05-07T11:34:53;912.93;;;845.80;;
6485;SDS011;3276;48.490;9.222;2023-05-07T11:37:20;835.03;;;771.47;;
6485;SDS011;3276;48.490;9.222;2023-05-07T11:39:46;837.77;;;782.03;;
6485;SDS011;3276;48.490;9.222;2023-05-07T11:42:28;816.93;;;761.97;;
6485;SDS011;3276;48.490;9.222;2023-05-07T11:44:54;775.60;;;722.70;;
6485;SDS011;3276;48.490;9.222;2023-05-07T11:47:20;798.67;;;738.93;;
6485;SDS011;3276;48.490;9.222;2023-05-07T11:49:47;730.47;;;682.87;;
6485;SDS011;3276;48.490;9.222;2023-05-07T11:52:13;654.40;;;614.30;;
6485;SDS011;3276;48.490;9.222;2023-05-07T11:54:39;572.63;;;539.73;;
6485;SDS011;3276;48.490;9.222;2023-05-07T11:57:05;712.80;;;666.47;;
6485;SDS011;3276;48.490;9.222;2023-05-07T11:59:38;619.03;;;582.87;;
6485;SDS011;3276;48.490;9.222;2023-05-07T12:02:09;687.20;;;642.43;;
6485;SDS011;3276;48.490;9.222;2023-05-07T12:04:34;699.90;;;655.57;;
6485;SDS011;3276;48.490;9.222;2023-05-07T12:07:00;670.53;;;627.13;;
6485;SDS011;3276;48.490;9.222;2023-05-07T12:09:26;671.83;;;628.67;;
6485;SDS011;3276;48.490;9.222;2023-05-07T12:11:51;621.47;;;580.77;;
6485;SDS011;3276;48.490;9.222;2023-05-07T12:14:17;674.00;;;633.27;;
6485;SDS011;3276;48.490;9.222;2023-05-07T12:16:43;616.13;;;579.87;;
6485;SDS011;3276;48.490;9.222;2023-05-07T12:19:10;729.77;;;677.50;;
6485;SDS011;3276;48.490;9.222;2023-05-07T12:21:37;668.17;;;625.60;;
6485;SDS011;3276;48.490;9.222;2023-05-07T12:24:04;686.43;;;643.83;;
6485;SDS011;3276;48.490;9.222;2023-05-07T12:26:30;641.53;;;605.73;;
6485;SDS011;3276;48.490;9.222;2023-05-07T12:28:57;624.17;;;588.97;;
6485;SDS011;3276;48.490;9.222;2023-05-07T12:31:22;714.27;;;670.13;;
6485;SDS011;3276;48.490;9.222;2023-05-07T12:33:50;676.80;;;637.43;;
6485;SDS011;3276;48.490;9.222;2023-05-07T12:36:16;658.63;;;616.73;;
6485;SDS011;3276;48.490;9.222;2023-05-07T12:38:41;609.93;;;574.03;;
6485;SDS011;3276;48.490;9.222;2023-05-07T12:41:08;652.17;;;611.30;;
6485;SDS011;3276;48.490;9.222;2023-05-07T12:43:34;700.60;;;654.90;;
6485;SDS011;3276;48.490;9.222;2023-05-07T12:46:01;612.30;;;577.10;;
6485;SDS011;3276;48.490;9.222;2023-05-07T12:48:31;561.67;;;527.80;;
6485;SDS011;3276;48.490;9.222;2023-05-07T12:50:57;618.23;;;577.13;;
6485;SDS011;3276;48.490;9.222;2023-05-07T12:53:24;581.97;;;549.27;;
6485;SDS011;3276;48.490;9.222;2023-05-07T12:55:52;497.80;;;469.97;;
6485;SDS011;3276;48.490;9.222;2023-05-07T12:58:20;576.20;;;543.20;;
6485;SDS011;3276;48.490;9.222;2023-05-07T13:00:58;704.40;;;660.90;;
6485;SDS011;3276;48.490;9.222;2023-05-07T13:03:26;410.87;;;388.00;;
6485;SDS011;3276;48.490;9.222;2023-05-07T13:05:54;570.17;;;537.03;;
6485;SDS011;3276;48.490;9.222;2023-05-07T13:08:27;708.27;;;666.63;;
6485;SDS011;3276;48.490;9.222;2023-05-07T13:10:55;530.17;;;499.17;;
6485;SDS011;3276;48.490;9.222;2023-05-07T13:13:21;643.03;;;604.77;;
6485;SDS011;3276;48.490;9.222;2023-05-07T13:15:47;558.67;;;525.83;;
6485;SDS011;3276;48.490;9.222;2023-05-07T13:18:13;639.53;;;601.43;;
6485;SDS011;3276;48.490;9.222;2023-05-07T13:20:39;647.20;;;607.20;;
6485;SDS011;3276;48.490;9.222;2023-05-07T13:23:05;713.57;;;664.40;;
6485;SDS011;3276;48.490;9.222;2023-05-07T13:25:31;520.57;;;489.63;;
6485;SDS011;3276;48.490;9.222;2023-05-07T13:27:56;539.43;;;508.10;;
6485;SDS011;3276;48.490;9.222;2023-05-07T13:30:22;574.97;;;540.37;;
6485;SDS011;3276;48.490;9.222;2023-05-07T13:32:48;442.07;;;416.97;;
6485;SDS011;3276;48.490;9.222;2023-05-07T13:35:14;565.30;;;530.77;;
6485;SDS011;3276;48.490;9.222;2023-05-07T13:37:40;594.47;;;555.93;;
6485;SDS011;3276;48.490;9.222;2023-05-07T13:40:06;433.97;;;408.37;;
6485;SDS011;3276;48.490;9.222;2023-05-07T13:42:32;545.93;;;513.67;;
6485;SDS011;3276;48.490;9.222;2023-05-07T13:44:58;522.30;;;491.23;;
6485;SDS011;3276;48.490;9.222;2023-05-07T13:47:23;461.73;;;435.03;;
6485;SDS011;3276;48.490;9.222;2023-05-07T13:49:49;299.17;;;282.43;;
6485;SDS011;3276;48.490;9.222;2023-05-07T13:52:15;518.87;;;488.20;;
6485;SDS011;3276;48.490;9.222;2023-05-07T13:54:41;516.27;;;485.43;;
6485;SDS011;3276;48.490;9.222;2023-05-07T13:57:07;551.47;;;518.53;;
6485;SDS011;3276;48.490;9.222;2023-05-07T13:59:33;445.30;;;419.33;;
6485;SDS011;3276;48.490;9.222;2023-05-07T14:01:58;340.80;;;321.43;;
6485;SDS011;3276;48.490;9.222;2023-05-07T14:04:24;352.40;;;332.50;;
6485;SDS011;3276;48.490;9.222;2023-05-07T14:06:50;398.87;;;376.50;;
6485;SDS011;3276;48.490;9.222;2023-05-07T14:09:16;410.10;;;386.80;;
6485;SDS011;3276;48.490;9.222;2023-05-07T14:11:41;454.97;;;428.87;;
6485;SDS011;3276;48.490;9.222;2023-05-07T14:14:07;337.30;;;318.00;;
6485;SDS011;3276;48.490;9.222;2023-05-07T14:16:35;428.87;;;405.93;;
6485;SDS011;3276;48.490;9.222;2023-05-07T14:19:01;399.17;;;377.73;;
6485;SDS011;3276;48.490;9.222;2023-05-07T14:21:27;305.37;;;288.63;;
6485;SDS011;3276;48.490;9.222;2023-05-07T14:23:52;354.37;;;334.23;;
6485;SDS011;3276;48.490;9.222;2023-05-07T14:26:18;434.63;;;407.87;;
6485;SDS011;3276;48.490;9.222;2023-05-07T14:28:44;333.83;;;314.57;;
6485;SDS011;3276;48.490;9.222;2023-05-07T14:31:11;442.90;;;415.77;;
6485;SDS011;3276;48.490;9.222;2023-05-07T14:33:37;481.53;;;453.90;;
6485;SDS011;3276;48.490;9.222;2023-05-07T14:36:03;379.53;;;356.57;;
6485;SDS011;3276;48.490;9.222;2023-05-07T14:38:28;461.33;;;436.53;;